createdAt,value
2022-11-06T00:01:55.166Z,26.53
2022-11-06T00:11:57.865Z,31.87
2022-11-06T00:21:59.283Z,24.27
2022-11-06T00:32:00.765Z,31.27
2022-11-06T00:42:02.205Z,27.73
2022-11-06T00:52:03.818Z,26.90
2022-11-06T01:02:05.414Z,31.63
2022-11-06T01:12:14.817Z,29.17
2022-11-06T01:22:16.651Z,26.93
2022-11-06T01:32:18.240Z,28.67
2022-11-06T01:42:21.170Z,33.23
2022-11-06T01:52:23.623Z,38.93
2022-11-06T02:02:25.338Z,117.37
2022-11-06T02:12:38.637Z,132.47
2022-11-06T02:22:46.164Z,132.60
2022-11-06T02:33:01.632Z,140.63
2022-11-06T02:43:07.381Z,112.97
2022-11-06T02:53:12.229Z,197.33
2022-11-06T03:03:45.510Z,156.53
2022-11-06T03:14:17.072Z,170.43
2022-11-06T03:24:31.440Z,141.73
2022-11-06T03:34:42.773Z,163.97
2022-11-06T03:44:48.344Z,84.17
2022-11-06T03:55:00.472Z,94.67
2022-11-06T04:05:08.521Z,99.30
2022-11-06T04:15:14.631Z,113.77
2022-11-06T04:26:09.895Z,123.47
2022-11-06T04:36:30.498Z,59.27
2022-11-06T04:46:57.621Z,47.03
2022-11-06T04:57:00.761Z,115.73
2022-11-06T05:07:02.212Z,110.53
2022-11-06T05:17:03.671Z,60.60
2022-11-06T05:27:05.167Z,135.33
2022-11-06T05:37:06.603Z,34.33
2022-11-06T05:47:08.085Z,57.50
2022-11-06T05:57:09.517Z,86.10
2022-11-06T06:07:11.047Z,26.00
2022-11-06T06:17:12.488Z,25.23
2022-11-06T06:27:13.919Z,49.37
2022-11-06T06:37:19.972Z,54.67
2022-11-06T06:47:21.725Z,59.17
2022-11-06T06:57:23.205Z,46.87
2022-11-06T07:07:24.655Z,24.87
2022-11-06T07:17:27.604Z,49.80
2022-11-06T07:27:29.536Z,60.40
2022-11-06T07:37:30.996Z,26.43
2022-11-06T07:47:32.530Z,58.83
2022-11-06T07:57:36.251Z,40.27
2022-11-06T08:07:37.796Z,17.63
2022-11-06T08:17:39.305Z,14.60
2022-11-06T08:27:40.814Z,12.77
2022-11-06T08:37:42.266Z,14.57
2022-11-06T08:47:43.763Z,13.80
2022-11-06T08:57:45.798Z,13.73
2022-11-06T09:07:47.218Z,15.63
2022-11-06T09:17:50.549Z,15.60
2022-11-06T09:27:58.925Z,14.47
2022-11-06T09:38:06.442Z,14.83
2022-11-06T09:48:10.593Z,17.77
2022-11-06T09:58:17.332Z,17.10
2022-11-06T10:08:22.264Z,18.33
2022-11-06T10:18:51.703Z,18.43
2022-11-06T10:29:31.816Z,18.73
2022-11-06T10:39:35.821Z,16.83
2022-11-06T10:49:48.106Z,16.23
2022-11-06T10:59:50.272Z,14.67
2022-11-06T11:09:51.821Z,15.33
2022-11-06T11:19:53.298Z,14.43
2022-11-06T11:29:55.859Z,11.80
2022-11-06T11:40:28.377Z,12.40
2022-11-06T11:50:33.961Z,12.20
2022-11-06T12:00:53.216Z,11.60
2022-11-06T12:11:02.647Z,10.73
2022-11-06T12:21:16.093Z,11.47
2022-11-06T12:31:39.377Z,10.70
2022-11-06T12:41:46.633Z,10.63
2022-11-06T12:52:17.547Z,10.20
2022-11-06T13:02:46.478Z,12.10
2022-11-06T13:13:02.944Z,11.67
2022-11-06T13:23:12.810Z,12.17
2022-11-06T13:33:24.332Z,11.67
2022-11-06T13:43:28.615Z,12.63
2022-11-06T13:53:46.040Z,13.80
2022-11-06T14:04:07.358Z,13.67
2022-11-06T14:14:25.362Z,13.30
2022-11-06T14:24:35.259Z,11.43
2022-11-06T14:34:38.767Z,12.60
2022-11-06T14:44:45.302Z,12.90
2022-11-06T14:55:03.447Z,14.83
2022-11-06T15:05:17.727Z,15.53
2022-11-06T15:15:20.558Z,15.93
2022-11-06T15:25:24.012Z,15.70
2022-11-06T15:35:28.612Z,17.77
2022-11-06T15:45:30.154Z,16.63
2022-11-06T15:55:34.895Z,18.23
2022-11-06T16:05:37.495Z,20.57
2022-11-06T16:15:41.752Z,22.27
2022-11-06T16:25:43.565Z,22.37
2022-11-06T16:35:48.040Z,22.27
2022-11-06T16:46:01.078Z,21.77
2022-11-06T16:56:08.013Z,22.00
2022-11-06T17:06:20.176Z,21.77
2022-11-06T17:16:24.643Z,22.97
2022-11-06T17:26:29.236Z,27.63
2022-11-06T17:36:32.887Z,26.27
2022-11-06T17:46:40.208Z,27.23
2022-11-06T17:56:41.717Z,27.13
2022-11-06T18:06:47.641Z,27.43
2022-11-06T18:16:50.052Z,27.43
2022-11-06T18:26:52.161Z,27.10
2022-11-06T18:36:53.667Z,25.97
2022-11-06T18:46:55.142Z,26.47
2022-11-06T18:56:56.589Z,27.07
2022-11-06T19:06:58.050Z,28.67
2022-11-06T19:16:59.507Z,29.23
2022-11-06T19:27:00.950Z,27.00
2022-11-06T19:37:02.394Z,24.13
2022-11-06T19:47:03.939Z,22.30
2022-11-06T19:57:27.143Z,21.40
2022-11-06T20:07:26.896Z,21.43
2022-11-06T20:17:28.376Z,21.30
2022-11-06T20:27:29.851Z,22.43
2022-11-06T20:37:31.973Z,22.83
2022-11-06T20:47:33.433Z,22.63
2022-11-06T20:57:34.936Z,21.93
2022-11-06T21:07:36.415Z,22.37
2022-11-06T21:17:42.442Z,22.80
2022-11-06T21:27:43.961Z,23.03
2022-11-06T21:37:45.417Z,20.93
2022-11-06T21:47:46.877Z,19.27
2022-11-06T21:57:48.342Z,16.87
2022-11-06T22:07:49.782Z,15.50
2022-11-06T22:17:51.587Z,15.83
2022-11-06T22:27:53.172Z,13.17
2022-11-06T22:37:54.616Z,13.20
2022-11-06T22:47:56.044Z,11.53
2022-11-06T22:57:57.521Z,12.03
2022-11-06T23:07:58.968Z,11.67
2022-11-06T23:18:00.528Z,11.23
2022-11-06T23:28:02.403Z,12.03
2022-11-06T23:38:03.844Z,12.10
2022-11-06T23:48:11.885Z,11.33
2022-11-06T23:58:13.386Z,9.03
